createdAt,value
2023-09-13T00:00:08.792Z,28.65
2023-09-13T00:02:42.775Z,25.42
2023-09-13T00:05:13.422Z,26.25
2023-09-13T00:07:41.942Z,26.42
2023-09-13T00:10:10.837Z,32.03
2023-09-13T00:12:40.807Z,30.77
2023-09-13T00:15:10.192Z,27.63
2023-09-13T00:17:38.892Z,34.58
2023-09-13T00:20:09.717Z,32.70
2023-09-13T00:22:38.201Z,33.53
2023-09-13T00:25:07.281Z,34.33
2023-09-13T00:27:36.661Z,32.80
2023-09-13T00:30:09.964Z,33.22
2023-09-13T00:32:38.718Z,34.95
2023-09-13T00:35:08.842Z,37.75
2023-09-13T00:37:37.546Z,38.22
2023-09-13T00:40:08.795Z,33.88
2023-09-13T00:42:38.730Z,39.30
2023-09-13T00:45:10.729Z,36.10
2023-09-13T00:47:40.595Z,40.47
2023-09-13T00:50:12.263Z,37.00
2023-09-13T00:52:41.962Z,38.65
2023-09-13T00:55:11.721Z,41.60
2023-09-13T00:57:40.705Z,40.63
2023-09-13T01:00:12.617Z,45.20
2023-09-13T01:02:42.380Z,44.65
2023-09-13T01:05:13.097Z,43.30
2023-09-13T01:07:43.193Z,46.10
2023-09-13T01:10:12.887Z,45.47
2023-09-13T01:12:41.472Z,52.65
2023-09-13T01:15:11.854Z,47.83
2023-09-13T01:17:49.735Z,49.20
2023-09-13T01:20:22.650Z,55.60
2023-09-13T01:23:18.323Z,54.80
2023-09-13T01:26:00.846Z,49.57
2023-09-13T01:28:41.978Z,55.00
2023-09-13T01:31:12.142Z,55.78
2023-09-13T01:33:40.801Z,58.80
2023-09-13T01:36:09.804Z,64.15
2023-09-13T01:38:38.820Z,60.72
2023-09-13T01:41:13.115Z,60.80
2023-09-13T01:43:43.536Z,55.83
2023-09-13T01:46:14.338Z,58.63
2023-09-13T01:48:43.902Z,61.55
2023-09-13T01:51:12.669Z,58.38
2023-09-13T01:53:45.483Z,52.10
2023-09-13T01:56:14.397Z,50.38
2023-09-13T01:58:44.330Z,45.20
2023-09-13T02:01:13.079Z,47.40
2023-09-13T02:03:42.146Z,45.70
2023-09-13T02:06:11.122Z,47.83
2023-09-13T02:08:40.063Z,43.33
2023-09-13T02:11:08.553Z,46.53
2023-09-13T02:13:37.506Z,45.17
2023-09-13T02:16:09.262Z,41.17
2023-09-13T02:18:39.420Z,42.72
2023-09-13T02:21:08.121Z,43.35
2023-09-13T02:23:36.535Z,44.40
2023-09-13T02:26:05.335Z,50.40
2023-09-13T02:28:33.779Z,42.78
2023-09-13T02:31:02.724Z,52.58
2023-09-13T02:33:32.735Z,45.35
2023-09-13T02:36:01.316Z,44.90
2023-09-13T02:38:30.035Z,47.33
2023-09-13T02:40:58.584Z,46.60
2023-09-13T02:43:27.131Z,44.97
2023-09-13T02:45:55.927Z,44.40
2023-09-13T02:48:24.639Z,44.92
2023-09-13T02:50:54.513Z,43.63
2023-09-13T02:53:23.804Z,41.40
2023-09-13T02:55:53.256Z,40.88
2023-09-13T02:58:22.053Z,42.30
2023-09-13T03:00:50.706Z,35.92
2023-09-13T03:03:19.871Z,35.20
2023-09-13T03:05:48.690Z,36.65
2023-09-13T03:08:18.690Z,35.72
2023-09-13T03:10:47.390Z,32.60
2023-09-13T03:13:16.021Z,33.88
2023-09-13T03:15:44.626Z,30.65
2023-09-13T03:18:13.716Z,32.47
2023-09-13T03:20:42.572Z,31.25
2023-09-13T03:23:11.904Z,30.45
2023-09-13T03:25:41.822Z,24.90
2023-09-13T03:28:10.695Z,23.60
2023-09-13T03:30:39.296Z,26.98
2023-09-13T03:33:07.860Z,26.25
2023-09-13T03:35:36.420Z,25.60
2023-09-13T03:38:05.235Z,21.80
2023-09-13T03:40:33.666Z,26.05
2023-09-13T03:43:03.780Z,24.02
2023-09-13T03:45:32.314Z,27.20
2023-09-13T03:48:01.872Z,22.13
2023-09-13T03:50:30.384Z,20.50
2023-09-13T03:52:59.290Z,22.63
2023-09-13T03:55:27.840Z,22.52
2023-09-13T03:57:56.571Z,23.48
2023-09-13T04:00:27.107Z,25.00
2023-09-13T04:02:55.734Z,26.38
2023-09-13T04:05:24.516Z,26.55
2023-09-13T04:07:53.387Z,27.02
2023-09-13T04:10:22.197Z,26.27
2023-09-13T04:12:50.749Z,29.90
2023-09-13T04:15:19.357Z,32.45
2023-09-13T04:17:49.523Z,37.20
2023-09-13T04:20:18.130Z,33.38
2023-09-13T04:22:46.993Z,34.60
2023-09-13T04:27:46.056Z,33.72
2023-09-13T04:30:17.469Z,32.35
2023-09-13T04:32:49.473Z,30.95
2023-09-13T04:35:18.634Z,31.25
2023-09-13T04:37:47.319Z,32.15
2023-09-13T04:40:15.915Z,31.65
2023-09-13T04:42:52.981Z,31.00
2023-09-13T04:45:22.224Z,29.98
2023-09-13T04:47:52.520Z,30.30
2023-09-13T04:50:21.289Z,32.72
2023-09-13T04:52:49.874Z,31.92
2023-09-13T04:55:20.170Z,30.00
2023-09-13T04:57:49.388Z,31.45
2023-09-13T05:00:18.631Z,26.65
2023-09-13T05:02:47.697Z,27.80
2023-09-13T05:05:18.333Z,27.10
2023-09-13T05:07:47.046Z,28.88
2023-09-13T05:10:15.709Z,28.02
2023-09-13T05:12:44.413Z,23.20
2023-09-13T05:17:55.581Z,25.40
2023-09-13T05:20:27.760Z,28.83
2023-09-13T05:22:56.441Z,25.58
2023-09-13T05:25:24.941Z,25.52
2023-09-13T05:27:53.724Z,26.85
2023-09-13T05:30:22.183Z,24.20
2023-09-13T05:32:50.874Z,27.75
2023-09-13T05:35:19.420Z,27.25
2023-09-13T05:37:50.998Z,28.02
2023-09-13T05:40:20.019Z,26.38
2023-09-13T05:42:48.578Z,24.60
2023-09-13T05:45:17.092Z,26.90
2023-09-13T05:47:49.686Z,28.35
2023-09-13T05:50:18.405Z,27.67
2023-09-13T05:52:46.918Z,27.35
2023-09-13T05:55:16.734Z,27.00
2023-09-13T05:57:45.135Z,25.10
2023-09-13T06:00:15.339Z,27.00
2023-09-13T06:02:44.429Z,25.08
2023-09-13T06:05:13.986Z,24.48
2023-09-13T06:07:43.265Z,24.27
2023-09-13T06:10:12.328Z,24.88
2023-09-13T06:12:42.343Z,25.05
2023-09-13T06:15:11.512Z,24.98
2023-09-13T06:17:40.027Z,24.65
2023-09-13T06:20:09.425Z,20.88
2023-09-13T06:22:38.693Z,19.63
2023-09-13T06:25:10.544Z,20.73
2023-09-13T06:27:39.929Z,22.25
2023-09-13T06:30:10.827Z,27.20
2023-09-13T06:32:41.702Z,21.90
2023-09-13T06:35:15.623Z,25.60
2023-09-13T06:37:46.777Z,22.90
2023-09-13T06:40:18.808Z,22.63
2023-09-13T06:43:00.148Z,24.17
2023-09-13T06:45:31.965Z,23.42
2023-09-13T06:48:02.230Z,25.10
2023-09-13T06:51:01.731Z,25.08
2023-09-13T06:53:34.202Z,27.98
2023-09-13T06:56:14.244Z,25.42
2023-09-13T06:58:47.421Z,26.25
2023-09-13T07:03:54.803Z,26.63
2023-09-13T07:06:24.420Z,25.60
2023-09-13T07:08:53.008Z,27.70
2023-09-13T07:11:21.503Z,28.25
2023-09-13T07:13:50.181Z,28.73
2023-09-13T07:16:20.130Z,26.15
2023-09-13T07:18:48.797Z,27.05
2023-09-13T07:21:17.261Z,28.88
2023-09-13T07:23:47.419Z,26.05
2023-09-13T07:26:16.117Z,26.30
2023-09-13T07:28:44.797Z,24.90
2023-09-13T07:31:14.483Z,24.58
2023-09-13T07:33:44.380Z,23.92
2023-09-13T07:36:15.906Z,24.02
2023-09-13T07:38:45.789Z,20.27
2023-09-13T07:41:14.560Z,22.95
2023-09-13T07:43:42.936Z,21.15
2023-09-13T07:46:11.529Z,20.42
2023-09-13T07:48:40.223Z,19.23
2023-09-13T07:51:10.127Z,20.05
2023-09-13T07:53:38.670Z,21.00
2023-09-13T07:56:07.514Z,19.42
2023-09-13T07:58:36.080Z,18.25
2023-09-13T08:01:04.666Z,18.88
2023-09-13T08:03:35.051Z,17.42
2023-09-13T08:06:04.863Z,20.35
2023-09-13T08:08:36.132Z,20.38
2023-09-13T08:11:05.246Z,18.13
2023-09-13T08:13:34.110Z,17.58
2023-09-13T08:16:02.631Z,18.83
2023-09-13T08:18:31.251Z,18.08
2023-09-13T08:20:59.734Z,17.65
2023-09-13T08:23:28.199Z,19.98
2023-09-13T08:26:06.073Z,15.90
2023-09-13T08:28:47.324Z,18.75
2023-09-13T08:31:16.301Z,14.77
2023-09-13T08:33:45.039Z,16.48
2023-09-13T08:36:13.463Z,19.40
2023-09-13T08:38:42.162Z,16.73
2023-09-13T08:41:14.494Z,15.45
2023-09-13T08:43:43.755Z,18.90
2023-09-13T08:46:15.286Z,16.92
2023-09-13T08:48:45.007Z,15.65
2023-09-13T08:51:15.740Z,15.18
2023-09-13T08:53:45.625Z,17.33
2023-09-13T08:56:16.763Z,14.95
2023-09-13T08:58:47.012Z,14.65
2023-09-13T09:01:19.958Z,15.82
2023-09-13T09:03:50.203Z,13.43
2023-09-13T09:06:20.890Z,13.02
2023-09-13T09:08:52.305Z,14.30
2023-09-13T09:11:25.134Z,10.95
2023-09-13T09:13:56.499Z,12.63
2023-09-13T09:16:27.086Z,11.63
2023-09-13T09:18:56.606Z,12.55
2023-09-13T09:21:25.812Z,11.13
2023-09-13T09:23:55.257Z,11.27
2023-09-13T09:26:25.394Z,13.48
2023-09-13T09:28:55.575Z,15.27
2023-09-13T09:31:27.028Z,11.50
2023-09-13T09:34:04.621Z,11.80
2023-09-13T09:36:35.830Z,14.35
2023-09-13T09:39:05.223Z,14.68
2023-09-13T09:41:36.165Z,15.93
2023-09-13T09:44:05.861Z,17.67
2023-09-13T09:46:35.826Z,18.40
2023-09-13T09:49:06.492Z,16.75
2023-09-13T09:51:35.045Z,22.40
2023-09-13T09:54:03.703Z,16.52
2023-09-13T09:56:32.247Z,17.00
2023-09-13T09:59:02.247Z,18.63
2023-09-13T10:01:32.558Z,22.17
2023-09-13T10:04:10.496Z,18.98
2023-09-13T10:06:39.725Z,20.27
2023-09-13T10:09:08.234Z,19.02
2023-09-13T10:11:37.393Z,20.20
2023-09-13T10:14:07.185Z,19.60
2023-09-13T10:16:36.293Z,17.73
2023-09-13T10:19:07.220Z,19.67
2023-09-13T10:21:36.992Z,19.77
2023-09-13T10:24:07.979Z,16.77
2023-09-13T10:26:36.898Z,14.70
2023-09-13T10:29:13.920Z,16.75
2023-09-13T10:31:46.541Z,18.42
2023-09-13T10:34:20.512Z,17.65
2023-09-13T10:36:52.961Z,16.00
2023-09-13T10:39:29.724Z,15.98
2023-09-13T10:42:05.205Z,15.43
2023-09-13T10:44:36.841Z,13.93
2023-09-13T10:47:06.286Z,14.90
2023-09-13T10:49:36.073Z,14.60
2023-09-13T10:52:06.351Z,14.88
2023-09-13T10:54:36.692Z,14.48
2023-09-13T10:57:06.423Z,14.88
2023-09-13T10:59:38.188Z,16.58
2023-09-13T11:02:08.574Z,15.70
2023-09-13T11:04:37.349Z,16.55
2023-09-13T11:07:06.683Z,16.92
2023-09-13T11:09:35.387Z,17.23
2023-09-13T11:12:04.390Z,12.43
2023-09-13T11:14:33.330Z,13.50
2023-09-13T11:17:12.592Z,12.20
2023-09-13T11:19:41.167Z,11.20
2023-09-13T11:22:09.663Z,15.55
2023-09-13T11:24:58.072Z,12.23
2023-09-13T11:27:29.214Z,12.57
2023-09-13T11:29:59.986Z,9.27
2023-09-13T11:32:33.390Z,10.50
2023-09-13T11:35:05.164Z,9.18
2023-09-13T11:37:35.040Z,10.45
2023-09-13T11:40:13.168Z,10.70
2023-09-13T11:45:30.209Z,8.82
2023-09-13T11:48:06.496Z,9.05
2023-09-13T11:50:48.323Z,9.90
2023-09-13T11:53:21.868Z,7.82
2023-09-13T11:56:09.763Z,9.32
2023-09-13T11:58:54.589Z,8.20
2023-09-13T12:01:29.792Z,9.60
2023-09-13T12:06:44.377Z,3.65
2023-09-13T12:09:19.507Z,3.92
2023-09-13T12:11:52.491Z,4.65
2023-09-13T12:14:35.370Z,2.85
2023-09-13T12:17:12.756Z,1.90
2023-09-13T12:19:42.656Z,4.25
2023-09-13T12:22:15.423Z,4.13
2023-09-13T12:24:54.200Z,1.40
2023-09-13T12:27:25.345Z,2.00
2023-09-13T12:29:53.831Z,1.40
2023-09-13T12:32:22.846Z,1.33
2023-09-13T12:34:52.844Z,1.85
2023-09-13T12:37:21.480Z,3.20
2023-09-13T12:39:50.008Z,2.40
2023-09-13T12:42:19.377Z,2.70
2023-09-13T12:44:48.673Z,2.47
2023-09-13T12:47:20.279Z,3.00
2023-09-13T12:49:48.794Z,3.70
2023-09-13T12:52:19.029Z,3.13
2023-09-13T12:54:47.962Z,3.15
2023-09-13T12:57:16.697Z,4.35
2023-09-13T12:59:46.678Z,3.08
2023-09-13T13:02:17.581Z,3.28
2023-09-13T13:04:46.384Z,3.30
2023-09-13T13:07:24.006Z,4.13
2023-09-13T13:09:53.508Z,4.13
2023-09-13T13:12:22.524Z,3.42
2023-09-13T13:14:52.631Z,3.75
2023-09-13T13:17:28.615Z,3.67
2023-09-13T13:19:57.842Z,2.97
2023-09-13T13:22:32.841Z,3.28
2023-09-13T13:25:01.617Z,3.60
2023-09-13T13:27:30.212Z,4.38
2023-09-13T13:29:58.755Z,4.43
2023-09-13T13:32:27.192Z,4.90
2023-09-13T13:34:56.046Z,4.13
2023-09-13T13:37:24.585Z,3.35
2023-09-13T13:39:54.395Z,2.92
2023-09-13T13:42:25.141Z,4.65
2023-09-13T13:44:53.990Z,2.70
2023-09-13T13:47:22.358Z,3.58
2023-09-13T13:49:51.352Z,2.80
2023-09-13T13:52:19.859Z,4.38
2023-09-13T13:54:48.595Z,3.45
2023-09-13T13:57:18.498Z,3.35
2023-09-13T13:59:47.331Z,3.08
2023-09-13T14:02:15.761Z,2.63
2023-09-13T14:04:44.261Z,2.42
2023-09-13T14:07:12.850Z,2.10
2023-09-13T14:09:41.405Z,2.45
2023-09-13T14:12:10.383Z,1.95
2023-09-13T14:14:40.891Z,3.53
2023-09-13T14:17:09.716Z,2.55
2023-09-13T14:19:38.120Z,1.60
2023-09-13T14:22:06.512Z,2.05
2023-09-13T14:24:34.989Z,2.20
2023-09-13T14:27:03.766Z,1.88
2023-09-13T14:29:32.509Z,1.98
2023-09-13T14:32:03.914Z,2.85
2023-09-13T14:34:35.600Z,3.67
2023-09-13T14:37:05.066Z,2.05
2023-09-13T14:39:33.531Z,2.47
2023-09-13T14:42:02.244Z,1.90
2023-09-13T14:44:30.762Z,3.75
2023-09-13T14:47:00.329Z,2.75
2023-09-13T14:49:30.192Z,2.30
2023-09-13T14:51:58.815Z,2.65
2023-09-13T14:54:27.233Z,2.97
2023-09-13T14:56:55.665Z,2.03
2023-09-13T14:59:24.107Z,1.48
2023-09-13T15:01:53.073Z,2.58
2023-09-13T15:04:22.334Z,1.35
2023-09-13T15:06:53.581Z,1.40
2023-09-13T15:09:22.074Z,1.08
2023-09-13T15:11:51.081Z,1.20
2023-09-13T15:14:20.094Z,1.83
2023-09-13T15:16:50.379Z,1.10
2023-09-13T15:19:19.047Z,1.20
2023-09-13T15:21:47.530Z,0.98
2023-09-13T15:24:19.947Z,1.13
2023-09-13T15:26:48.469Z,1.08
2023-09-13T15:29:16.957Z,0.90
2023-09-13T15:34:16.832Z,0.93
2023-09-13T15:36:45.275Z,1.05
2023-09-13T15:39:13.912Z,1.20
2023-09-13T15:41:43.941Z,2.55
2023-09-13T15:44:12.364Z,2.05
2023-09-13T15:46:42.892Z,2.08
2023-09-13T15:49:11.316Z,1.35
2023-09-13T15:51:41.024Z,2.15
2023-09-13T15:54:09.706Z,1.73
2023-09-13T15:56:38.174Z,1.60
2023-09-13T15:59:08.260Z,2.22
2023-09-13T16:01:36.865Z,1.80
2023-09-13T16:04:05.746Z,2.40
2023-09-13T16:06:34.536Z,3.47
2023-09-13T16:09:04.253Z,2.35
2023-09-13T16:11:35.190Z,1.23
2023-09-13T16:14:04.564Z,1.42
2023-09-13T16:16:34.475Z,1.60
2023-09-13T16:19:03.164Z,1.63
2023-09-13T16:21:32.031Z,1.77
2023-09-13T16:24:00.475Z,2.10
2023-09-13T16:26:28.927Z,1.95
2023-09-13T16:28:57.773Z,1.85
2023-09-13T16:31:26.261Z,2.05
2023-09-13T16:33:56.837Z,1.75
2023-09-13T16:36:25.601Z,1.60
2023-09-13T16:38:54.492Z,1.98
2023-09-13T16:41:23.009Z,1.95
2023-09-13T16:43:51.500Z,2.85
2023-09-13T16:46:20.267Z,1.70
2023-09-13T16:48:48.819Z,1.90
2023-09-13T16:51:18.956Z,2.42
2023-09-13T16:53:47.514Z,1.90
2023-09-13T16:56:16.136Z,2.03
2023-09-13T16:58:44.787Z,2.58
2023-09-13T17:01:13.786Z,3.88
2023-09-13T17:03:42.572Z,2.92
2023-09-13T17:06:11.476Z,3.97
2023-09-13T17:08:41.371Z,3.20
2023-09-13T17:11:12.919Z,2.42
2023-09-13T17:13:41.967Z,3.25
2023-09-13T17:16:11.216Z,3.88
2023-09-13T17:18:39.972Z,2.40
2023-09-13T17:21:08.457Z,3.25
2023-09-13T17:23:37.238Z,2.65
2023-09-13T17:26:07.330Z,2.83
2023-09-13T17:28:36.207Z,3.35
2023-09-13T17:31:06.395Z,3.58
2023-09-13T17:33:35.378Z,3.53
2023-09-13T17:36:04.070Z,5.75
2023-09-13T17:38:32.556Z,2.00
2023-09-13T17:41:00.968Z,4.40
2023-09-13T17:43:31.121Z,2.42
2023-09-13T17:45:59.722Z,2.40
2023-09-13T17:48:28.351Z,3.17
2023-09-13T17:50:56.835Z,4.32
2023-09-13T17:53:25.445Z,1.70
2023-09-13T17:55:55.891Z,4.13
2023-09-13T17:58:24.347Z,3.03
2023-09-13T18:01:00.122Z,2.00
2023-09-13T18:03:28.690Z,3.03
2023-09-13T18:05:57.220Z,2.30
2023-09-13T18:08:25.690Z,2.42
2023-09-13T18:10:54.167Z,2.55
2023-09-13T18:13:22.864Z,1.80
2023-09-13T18:15:51.433Z,2.30
2023-09-13T18:18:21.259Z,1.85
2023-09-13T18:20:50.419Z,2.92
2023-09-13T18:23:20.534Z,2.75
2023-09-13T18:25:49.058Z,2.53
2023-09-13T18:28:17.484Z,3.40
2023-09-13T18:30:46.013Z,2.55
2023-09-13T18:33:14.772Z,3.03
2023-09-13T18:35:44.648Z,5.25
2023-09-13T18:38:13.313Z,3.42
2023-09-13T18:40:41.712Z,3.08
2023-09-13T18:43:10.148Z,2.40
2023-09-13T18:45:39.169Z,2.42
2023-09-13T18:48:08.534Z,2.95
2023-09-13T18:50:37.057Z,1.85
2023-09-13T18:53:06.914Z,2.20
2023-09-13T18:55:35.450Z,3.05
2023-09-13T18:58:04.279Z,2.85
2023-09-13T19:00:33.583Z,2.45
2023-09-13T19:03:02.192Z,4.05
2023-09-13T19:05:31.162Z,2.97
2023-09-13T19:07:59.603Z,3.22
2023-09-13T19:10:29.453Z,2.85
2023-09-13T19:12:58.037Z,4.60
2023-09-13T19:15:26.704Z,2.53
2023-09-13T19:17:55.243Z,2.63
2023-09-13T19:20:23.811Z,2.83
2023-09-13T19:22:52.607Z,2.78
2023-09-13T19:25:21.414Z,3.88
2023-09-13T19:27:51.346Z,5.75
2023-09-13T19:30:20.004Z,3.05
2023-09-13T19:32:52.865Z,2.13
2023-09-13T19:35:21.972Z,2.70
2023-09-13T19:37:50.470Z,3.28
2023-09-13T19:40:19.220Z,2.25
2023-09-13T19:42:47.769Z,3.47
2023-09-13T19:45:17.697Z,3.03
2023-09-13T19:47:46.153Z,4.40
2023-09-13T19:50:14.591Z,1.95
2023-09-13T19:52:43.169Z,6.22
2023-09-13T19:55:11.651Z,2.75
2023-09-13T19:57:40.193Z,2.40
2023-09-13T20:00:10.627Z,4.68
2023-09-13T20:02:41.348Z,4.15
2023-09-13T20:05:10.654Z,2.47
2023-09-13T20:07:39.096Z,3.33
2023-09-13T20:10:09.444Z,2.65
2023-09-13T20:12:38.926Z,3.10
2023-09-13T20:15:09.170Z,2.90
2023-09-13T20:17:37.731Z,3.22
2023-09-13T20:20:09.401Z,3.40
2023-09-13T20:22:37.804Z,2.55
2023-09-13T20:25:07.857Z,2.67
2023-09-13T20:27:36.712Z,2.53
2023-09-13T20:30:06.377Z,5.45
2023-09-13T20:32:35.277Z,2.85
2023-09-13T20:35:04.885Z,3.28
2023-09-13T20:37:35.387Z,4.40
2023-09-13T20:40:05.127Z,3.78
2023-09-13T20:42:35.322Z,5.57
2023-09-13T20:45:04.466Z,3.42
2023-09-13T20:47:32.943Z,4.30
2023-09-13T20:50:01.599Z,6.38
2023-09-13T20:52:30.019Z,3.88
2023-09-13T20:54:59.901Z,3.53
2023-09-13T20:57:28.359Z,4.78
2023-09-13T20:59:56.842Z,2.90
2023-09-13T21:02:25.325Z,2.92
2023-09-13T21:04:55.432Z,2.78
2023-09-13T21:07:25.666Z,3.25
2023-09-13T21:09:54.231Z,3.05
2023-09-13T21:12:25.050Z,2.50
2023-09-13T21:14:54.507Z,2.92
2023-09-13T21:17:23.935Z,2.03
2023-09-13T21:19:52.732Z,1.92
2023-09-13T21:22:21.128Z,4.53
2023-09-13T21:24:50.267Z,3.00
2023-09-13T21:27:19.604Z,4.28
2023-09-13T21:29:49.492Z,1.45
2023-09-13T21:32:18.368Z,2.97
2023-09-13T21:35:00.575Z,3.72
2023-09-13T21:37:34.229Z,5.25
2023-09-13T21:40:04.644Z,2.97
2023-09-13T21:42:33.169Z,3.72
2023-09-13T21:45:04.290Z,3.60
2023-09-13T21:47:32.838Z,4.18
2023-09-13T21:50:01.230Z,3.53
2023-09-13T21:52:30.224Z,3.88
2023-09-13T21:54:58.642Z,5.50
2023-09-13T21:57:29.381Z,2.90
2023-09-13T21:59:58.278Z,4.80
2023-09-13T22:02:28.243Z,3.03
2023-09-13T22:04:57.733Z,3.67
2023-09-13T22:07:26.262Z,3.15
2023-09-13T22:09:54.918Z,3.72
2023-09-13T22:12:23.787Z,4.00
2023-09-13T22:14:55.139Z,3.10
2023-09-13T22:17:23.794Z,4.72
2023-09-13T22:19:57.211Z,2.05
2023-09-13T22:22:29.257Z,3.55
2023-09-13T22:24:58.977Z,3.40
2023-09-13T22:27:27.967Z,2.50
2023-09-13T22:29:57.004Z,3.65
2023-09-13T22:32:25.635Z,4.93
2023-09-13T22:34:56.227Z,2.90
2023-09-13T22:37:24.817Z,6.18
2023-09-13T22:39:53.978Z,3.03
2023-09-13T22:42:23.135Z,4.25
2023-09-13T22:44:55.211Z,3.75
2023-09-13T22:47:24.065Z,4.35
2023-09-13T22:49:53.657Z,3.72
2023-09-13T22:52:25.845Z,3.08
2023-09-13T22:54:55.706Z,4.72
2023-09-13T22:57:24.297Z,3.88
2023-09-13T22:59:53.009Z,3.70
2023-09-13T23:02:22.096Z,5.25
2023-09-13T23:04:50.785Z,3.60
2023-09-13T23:07:19.849Z,5.68
2023-09-13T23:09:49.797Z,4.85
2023-09-13T23:12:18.292Z,3.35
2023-09-13T23:14:46.718Z,3.28
2023-09-13T23:17:16.057Z,6.95
2023-09-13T23:19:44.592Z,3.35
2023-09-13T23:22:13.016Z,3.90
2023-09-13T23:24:42.529Z,5.85
2023-09-13T23:27:12.912Z,4.13
2023-09-13T23:29:41.464Z,3.80
2023-09-13T23:32:09.990Z,3.88
2023-09-13T23:34:40.251Z,3.42
2023-09-13T23:37:08.903Z,4.43
2023-09-13T23:39:37.389Z,3.80
2023-09-13T23:42:06.055Z,3.10
2023-09-13T23:44:35.795Z,4.90
2023-09-13T23:47:04.465Z,4.75
2023-09-13T23:49:34.607Z,5.38
2023-09-13T23:52:03.740Z,6.00
2023-09-13T23:54:32.385Z,4.80
2023-09-13T23:57:01.007Z,7.88
2023-09-13T23:59:32.486Z,5.78
